sensor_id;sensor_type;location;lat;lon;timestamp;pressure;altitude;pressure_sealevel;temperature;humidity
20612;BME280;10465;42.686;23.364;2024-01-10T00:01:55;96031.91;;;-1.69;68.66
20612;BME280;10465;42.686;23.364;2024-01-10T00:04:20;96036.13;;;-1.62;68.16
20612;BME280;10465;42.686;23.364;2024-01-10T00:06:46;96027.13;;;-1.66;68.15
20612;BME280;10465;42.686;23.364;2024-01-10T00:09:11;96031.50;;;-1.60;68.42
20612;BME280;10465;42.686;23.364;2024-01-10T00:11:36;96024.31;;;-1.64;67.86
20612;BME280;10465;42.686;23.364;2024-01-10T00:14:02;96016.34;;;-1.69;67.96
20612;BME280;10465;42.686;23.364;2024-01-10T00:16:28;96024.94;;;-1.56;67.93
20612;BME280;10465;42.686;23.364;2024-01-10T00:18:54;96006.94;;;-1.70;67.18
20612;BME280;10465;42.686;23.364;2024-01-10T00:21:19;96011.53;;;-1.59;67.17
20612;BME280;10465;42.686;23.364;2024-01-10T00:23:45;96028.31;;;-1.42;66.38
20612;BME280;10465;42.686;23.364;2024-01-10T00:26:10;96047.50;;;-1.36;66.62
20612;BME280;10465;42.686;23.364;2024-01-10T00:28:36;96023.34;;;-1.57;65.77
20612;BME280;10465;42.686;23.364;2024-01-10T00:31:01;96033.69;;;-1.50;65.78
20612;BME280;10465;42.686;23.364;2024-01-10T00:33:27;96045.91;;;-1.37;66.17
20612;BME280;10465;42.686;23.364;2024-01-10T00:35:52;96051.09;;;-1.37;65.96
20612;BME280;10465;42.686;23.364;2024-01-10T00:38:17;96049.09;;;-1.42;66.16
20612;BME280;10465;42.686;23.364;2024-01-10T00:40:43;96047.09;;;-1.40;66.12
20612;BME280;10465;42.686;23.364;2024-01-10T00:43:08;96024.31;;;-1.51;66.25
20612;BME280;10465;42.686;23.364;2024-01-10T00:45:34;96052.88;;;-1.25;66.51
20612;BME280;10465;42.686;23.364;2024-01-10T00:47:59;96050.88;;;-1.22;66.65
20612;BME280;10465;42.686;23.364;2024-01-10T00:50:25;96054.69;;;-1.32;66.21
20612;BME280;10465;42.686;23.364;2024-01-10T00:52:50;96025.72;;;-1.48;66.03
20612;BME280;10465;42.686;23.364;2024-01-10T00:55:16;96046.28;;;-1.34;66.34
20612;BME280;10465;42.686;23.364;2024-01-10T00:57:42;96052.69;;;-1.36;66.54
20612;BME280;10465;42.686;23.364;2024-01-10T01:00:08;96046.09;;;-1.32;66.42
20612;BME280;10465;42.686;23.364;2024-01-10T01:02:36;96039.88;;;-1.38;66.32
20612;BME280;10465;42.686;23.364;2024-01-10T01:05:02;96049.69;;;-1.27;65.99
20612;BME280;10465;42.686;23.364;2024-01-10T01:07:28;96039.31;;;-1.33;65.81
20612;BME280;10465;42.686;23.364;2024-01-10T01:09:53;96045.09;;;-1.25;65.60
20612;BME280;10465;42.686;23.364;2024-01-10T01:12:19;96050.88;;;-1.22;65.98
20612;BME280;10465;42.686;23.364;2024-01-10T01:14:44;96042.50;;;-1.31;66.60
20612;BME280;10465;42.686;23.364;2024-01-10T01:17:10;96043.50;;;-1.26;65.80
20612;BME280;10465;42.686;23.364;2024-01-10T01:19:35;96039.09;;;-1.25;66.01
20612;BME280;10465;42.686;23.364;2024-01-10T01:22:01;96017.34;;;-1.37;65.62
20612;BME280;10465;42.686;23.364;2024-01-10T01:24:26;96035.50;;;-1.24;65.05
20612;BME280;10465;42.686;23.364;2024-01-10T01:26:52;95987.38;;;-1.53;65.58
20612;BME280;10465;42.686;23.364;2024-01-10T01:29:17;96009.91;;;-1.34;64.99
20612;BME280;10465;42.686;23.364;2024-01-10T01:31:43;96034.69;;;-1.11;64.61
20612;BME280;10465;42.686;23.364;2024-01-10T01:34:08;96030.28;;;-1.11;64.90
20612;BME280;10465;42.686;23.364;2024-01-10T01:36:34;96036.44;;;-0.98;64.40
20612;BME280;10465;42.686;23.364;2024-01-10T01:38:59;96021.47;;;-1.03;64.80
20612;BME280;10465;42.686;23.364;2024-01-10T01:41:25;96031.03;;;-0.90;63.82
20612;BME280;10465;42.686;23.364;2024-01-10T01:43:50;96022.66;;;-1.06;64.41
20612;BME280;10465;42.686;23.364;2024-01-10T01:46:16;96023.66;;;-1.00;64.70
20612;BME280;10465;42.686;23.364;2024-01-10T01:48:41;95996.31;;;-1.09;64.40
20612;BME280;10465;42.686;23.364;2024-01-10T01:51:08;96024.47;;;-0.93;64.91
20612;BME280;10465;42.686;23.364;2024-01-10T01:53:35;96030.84;;;-0.89;64.82
20612;BME280;10465;42.686;23.364;2024-01-10T01:56:04;96024.47;;;-0.93;64.50
20612;BME280;10465;42.686;23.364;2024-01-10T01:58:29;96026.44;;;-1.02;64.45
20612;BME280;10465;42.686;23.364;2024-01-10T02:00:55;96002.47;;;-1.10;64.55
20612;BME280;10465;42.686;23.364;2024-01-10T02:03:21;96013.50;;;-1.08;64.58
20612;BME280;10465;42.686;23.364;2024-01-10T02:05:46;96011.50;;;-1.13;64.98
20612;BME280;10465;42.686;23.364;2024-01-10T02:08:13;95974.59;;;-1.41;64.87
20612;BME280;10465;42.686;23.364;2024-01-10T02:10:38;96013.09;;;-1.18;64.78
20612;BME280;10465;42.686;23.364;2024-01-10T02:13:05;96011.31;;;-1.25;65.14
20612;BME280;10465;42.686;23.364;2024-01-10T02:15:31;95997.94;;;-1.35;65.04
20612;BME280;10465;42.686;23.364;2024-01-10T02:17:56;95996.94;;;-1.40;65.57
20612;BME280;10465;42.686;23.364;2024-01-10T02:20:22;95989.38;;;-1.55;65.50
20612;BME280;10465;42.686;23.364;2024-01-10T02:22:48;95974.19;;;-1.58;63.86
20612;BME280;10465;42.686;23.364;2024-01-10T02:25:15;96001.75;;;-1.37;63.01
20612;BME280;10465;42.686;23.364;2024-01-10T02:27:41;95990.94;;;-1.54;63.62
20612;BME280;10465;42.686;23.364;2024-01-10T02:30:08;96009.31;;;-1.42;62.78
20612;BME280;10465;42.686;23.364;2024-01-10T02:32:34;96010.94;;;-1.41;62.72
20612;BME280;10465;42.686;23.364;2024-01-10T02:35:00;96010.53;;;-1.45;62.38
20612;BME280;10465;42.686;23.364;2024-01-10T02:37:25;96006.34;;;-1.46;63.15
20612;BME280;10465;42.686;23.364;2024-01-10T02:39:51;96013.53;;;-1.41;63.73
20612;BME280;10465;42.686;23.364;2024-01-10T02:42:17;96007.34;;;-1.40;63.03
20612;BME280;10465;42.686;23.364;2024-01-10T02:44:43;96020.13;;;-1.45;62.82
20612;BME280;10465;42.686;23.364;2024-01-10T02:47:09;96020.72;;;-1.43;62.54
20612;BME280;10465;42.686;23.364;2024-01-10T02:49:35;96003.38;;;-1.50;62.91
20612;BME280;10465;42.686;23.364;2024-01-10T02:52:00;96013.72;;;-1.43;63.15
20612;BME280;10465;42.686;23.364;2024-01-10T02:54:26;96005.75;;;-1.48;63.21
20612;BME280;10465;42.686;23.364;2024-01-10T02:56:51;96019.94;;;-1.44;63.11
20612;BME280;10465;42.686;23.364;2024-01-10T02:59:17;96017.34;;;-1.37;62.74
20612;BME280;10465;42.686;23.364;2024-01-10T03:01:42;96009.34;;;-1.36;63.15
20612;BME280;10465;42.686;23.364;2024-01-10T03:04:08;95985.38;;;-1.51;62.28
20612;BME280;10465;42.686;23.364;2024-01-10T03:06:34;96008.31;;;-1.35;62.11
20612;BME280;10465;42.686;23.364;2024-01-10T03:08:59;95995.94;;;-1.46;62.11
20612;BME280;10465;42.686;23.364;2024-01-10T03:11:24;96012.34;;;-1.32;62.41
20612;BME280;10465;42.686;23.364;2024-01-10T03:14:01;96006.91;;;-1.31;62.78
20612;BME280;10465;42.686;23.364;2024-01-10T03:16:27;96008.31;;;-1.28;63.24
20612;BME280;10465;42.686;23.364;2024-01-10T03:18:52;96000.75;;;-1.36;63.08
20612;BME280;10465;42.686;23.364;2024-01-10T03:21:17;96020.50;;;-1.22;62.50
20612;BME280;10465;42.686;23.364;2024-01-10T03:23:50;95998.91;;;-1.22;62.39
20612;BME280;10465;42.686;23.364;2024-01-10T03:26:16;96013.31;;;-1.20;62.76
20612;BME280;10465;42.686;23.364;2024-01-10T03:28:41;96023.50;;;-1.12;62.98
20612;BME280;10465;42.686;23.364;2024-01-10T03:31:06;96013.53;;;-1.21;62.89
20612;BME280;10465;42.686;23.364;2024-01-10T03:33:32;96002.72;;;-1.25;62.55
20612;BME280;10465;42.686;23.364;2024-01-10T03:35:58;96016.69;;;-1.13;62.11
20612;BME280;10465;42.686;23.364;2024-01-10T03:38:23;96021.50;;;-1.23;62.73
20612;BME280;10465;42.686;23.364;2024-01-10T03:40:49;96021.91;;;-1.19;62.74
20612;BME280;10465;42.686;23.364;2024-01-10T03:43:14;96014.91;;;-1.19;62.61
20612;BME280;10465;42.686;23.364;2024-01-10T03:45:42;96005.31;;;-1.18;62.54
20612;BME280;10465;42.686;23.364;2024-01-10T03:48:07;96016.50;;;-1.05;62.38
20612;BME280;10465;42.686;23.364;2024-01-10T03:50:33;96020.47;;;-1.02;62.89
20612;BME280;10465;42.686;23.364;2024-01-10T03:52:58;96003.28;;;-1.10;62.49
20612;BME280;10465;42.686;23.364;2024-01-10T03:55:24;96021.06;;;-1.07;62.50
20612;BME280;10465;42.686;23.364;2024-01-10T03:57:49;96006.72;;;-1.16;62.82
20612;BME280;10465;42.686;23.364;2024-01-10T04:00:15;96025.91;;;-1.17;62.57
20612;BME280;10465;42.686;23.364;2024-01-10T04:02:40;96024.06;;;-1.10;61.78
20612;BME280;10465;42.686;23.364;2024-01-10T04:05:09;96019.66;;;-1.03;60.95
20612;BME280;10465;42.686;23.364;2024-01-10T04:07:38;96032.66;;;-0.96;60.78
20612;BME280;10465;42.686;23.364;2024-01-10T04:10:05;96039.66;;;-0.96;60.83
20612;BME280;10465;42.686;23.364;2024-01-10T04:12:32;96030.47;;;-0.99;61.42
20612;BME280;10465;42.686;23.364;2024-01-10T04:14:57;96018.72;;;-1.28;61.89
20612;BME280;10465;42.686;23.364;2024-01-10T04:17:23;96012.94;;;-1.43;62.07
20612;BME280;10465;42.686;23.364;2024-01-10T04:19:48;96033.91;;;-1.32;62.64
20612;BME280;10465;42.686;23.364;2024-01-10T04:22:14;96018.72;;;-1.55;63.06
20612;BME280;10465;42.686;23.364;2024-01-10T04:24:39;96014.75;;;-1.64;63.66
20612;BME280;10465;42.686;23.364;2024-01-10T04:27:05;96035.31;;;-1.49;64.32
20612;BME280;10465;42.686;23.364;2024-01-10T04:29:30;96034.72;;;-1.58;64.87
20612;BME280;10465;42.686;23.364;2024-01-10T04:31:55;96000.38;;;-1.73;65.02
20612;BME280;10465;42.686;23.364;2024-01-10T04:34:21;96051.88;;;-1.43;63.74
20612;BME280;10465;42.686;23.364;2024-01-10T04:36:48;96031.31;;;-1.58;63.32
20612;BME280;10465;42.686;23.364;2024-01-10T04:39:13;96051.88;;;-1.50;62.82
20612;BME280;10465;42.686;23.364;2024-01-10T04:41:38;96022.34;;;-1.69;61.78
20612;BME280;10465;42.686;23.364;2024-01-10T04:44:04;96062.09;;;-1.48;60.93
20612;BME280;10465;42.686;23.364;2024-01-10T04:46:30;96056.88;;;-1.55;61.07
20612;BME280;10465;42.686;23.364;2024-01-10T04:48:55;96063.06;;;-1.56;61.24
20612;BME280;10465;42.686;23.364;2024-01-10T04:51:21;96067.28;;;-1.48;61.33
20612;BME280;10465;42.686;23.364;2024-01-10T04:53:46;96069.09;;;-1.49;62.28
20612;BME280;10465;42.686;23.364;2024-01-10T04:56:11;96069.09;;;-1.49;61.93
20612;BME280;10465;42.686;23.364;2024-01-10T04:58:37;96056.88;;;-1.55;62.56
20612;BME280;10465;42.686;23.364;2024-01-10T05:01:02;96067.66;;;-1.38;62.39
20612;BME280;10465;42.686;23.364;2024-01-10T05:03:28;96064.69;;;-1.35;62.00
20612;BME280;10465;42.686;23.364;2024-01-10T05:05:53;96058.69;;;-1.42;62.37
20612;BME280;10465;42.686;23.364;2024-01-10T05:08:19;96067.09;;;-1.40;62.34
20612;BME280;10465;42.686;23.364;2024-01-10T05:10:47;96061.88;;;-1.40;62.84
20612;BME280;10465;42.686;23.364;2024-01-10T05:13:13;96063.06;;;-1.43;63.44
20612;BME280;10465;42.686;23.364;2024-01-10T05:15:38;96069.28;;;-1.44;63.71
20612;BME280;10465;42.686;23.364;2024-01-10T05:18:05;96057.88;;;-1.63;63.87
20612;BME280;10465;42.686;23.364;2024-01-10T05:20:30;96077.25;;;-1.52;63.88
20612;BME280;10465;42.686;23.364;2024-01-10T05:22:57;96078.28;;;-1.53;62.92
20612;BME280;10465;42.686;23.364;2024-01-10T05:25:24;96067.47;;;-1.63;61.73
20612;BME280;10465;42.686;23.364;2024-01-10T05:27:50;96065.06;;;-1.65;61.56
20612;BME280;10465;42.686;23.364;2024-01-10T05:30:15;96084.25;;;-1.53;61.41
20612;BME280;10465;42.686;23.364;2024-01-10T05:32:40;96079.66;;;-1.57;61.26
20612;BME280;10465;42.686;23.364;2024-01-10T05:35:07;96091.03;;;-1.58;61.54
20612;BME280;10465;42.686;23.364;2024-01-10T05:37:33;96072.66;;;-1.70;61.09
20612;BME280;10465;42.686;23.364;2024-01-10T05:39:58;96093.44;;;-1.57;61.86
20612;BME280;10465;42.686;23.364;2024-01-10T05:42:24;96077.84;;;-1.70;61.53
20612;BME280;10465;42.686;23.364;2024-01-10T05:44:49;96070.88;;;-1.69;61.39
20612;BME280;10465;42.686;23.364;2024-01-10T05:47:14;96093.25;;;-1.55;60.34
20612;BME280;10465;42.686;23.364;2024-01-10T05:49:40;96088.22;;;-1.63;60.01
20612;BME280;10465;42.686;23.364;2024-01-10T05:52:05;96091.63;;;-1.63;59.13
20612;BME280;10465;42.686;23.364;2024-01-10T05:54:31;96085.84;;;-1.65;58.04
20612;BME280;10465;42.686;23.364;2024-01-10T05:56:56;96093.25;;;-1.62;58.15
20612;BME280;10465;42.686;23.364;2024-01-10T05:59:22;96099.00;;;-1.66;57.80
20612;BME280;10465;42.686;23.364;2024-01-10T06:01:47;96097.63;;;-1.69;58.02
20612;BME280;10465;42.686;23.364;2024-01-10T06:04:13;96101.84;;;-1.61;58.33
20612;BME280;10465;42.686;23.364;2024-01-10T06:06:38;96105.41;;;-1.62;58.15
20612;BME280;10465;42.686;23.364;2024-01-10T06:09:04;96106.03;;;-1.60;58.44
20612;BME280;10465;42.686;23.364;2024-01-10T06:11:29;96110.63;;;-1.56;57.37
20612;BME280;10465;42.686;23.364;2024-01-10T06:13:55;96109.81;;;-1.56;57.22
20612;BME280;10465;42.686;23.364;2024-01-10T06:16:22;96107.59;;;-1.72;58.01
20612;BME280;10465;42.686;23.364;2024-01-10T06:18:48;96121.19;;;-1.64;57.27
20612;BME280;10465;42.686;23.364;2024-01-10T06:21:14;96065.22;;;-2.00;57.46
20612;BME280;10465;42.686;23.364;2024-01-10T06:23:39;96119.41;;;-1.63;57.23
20612;BME280;10465;42.686;23.364;2024-01-10T06:26:04;96122.19;;;-1.58;57.31
20612;BME280;10465;42.686;23.364;2024-01-10T06:28:30;96121.34;;;-1.79;57.24
20612;BME280;10465;42.686;23.364;2024-01-10T06:30:55;96141.56;;;-1.67;58.62
20612;BME280;10465;42.686;23.364;2024-01-10T06:33:21;96113.78;;;-1.80;58.67
20612;BME280;10465;42.686;23.364;2024-01-10T06:35:46;96122.34;;;-1.80;57.32
20612;BME280;10465;42.686;23.364;2024-01-10T06:38:12;96137.16;;;-1.67;56.96
20612;BME280;10465;42.686;23.364;2024-01-10T06:40:38;96135.38;;;-1.60;56.65
20612;BME280;10465;42.686;23.364;2024-01-10T06:43:04;96141.19;;;-1.51;56.55
20612;BME280;10465;42.686;23.364;2024-01-10T06:45:29;96131.59;;;-1.57;57.41
20612;BME280;10465;42.686;23.364;2024-01-10T06:47:55;96141.19;;;-1.51;57.63
20612;BME280;10465;42.686;23.364;2024-01-10T06:50:20;96136.97;;;-1.65;56.64
20612;BME280;10465;42.686;23.364;2024-01-10T06:52:46;96130.16;;;-1.73;55.13
20612;BME280;10465;42.686;23.364;2024-01-10T06:55:12;96149.16;;;-1.66;53.65
20612;BME280;10465;42.686;23.364;2024-01-10T06:57:37;96138.53;;;-1.71;53.09
20612;BME280;10465;42.686;23.364;2024-01-10T07:00:03;96152.56;;;-1.65;53.05
20612;BME280;10465;42.686;23.364;2024-01-10T07:02:32;96161.56;;;-1.55;52.12
20612;BME280;10465;42.686;23.364;2024-01-10T07:04:57;96149.97;;;-1.65;51.20
20612;BME280;10465;42.686;23.364;2024-01-10T07:07:23;96153.59;;;-1.53;51.23
20612;BME280;10465;42.686;23.364;2024-01-10T07:09:48;96158.97;;;-1.48;51.36
20612;BME280;10465;42.686;23.364;2024-01-10T07:12:14;96155.00;;;-1.44;51.43
20612;BME280;10465;42.686;23.364;2024-01-10T07:14:39;96142.59;;;-1.42;51.43
20612;BME280;10465;42.686;23.364;2024-01-10T07:17:05;96147.81;;;-1.22;50.90
20612;BME280;10465;42.686;23.364;2024-01-10T07:19:30;96145.22;;;-1.15;51.05
20612;BME280;10465;42.686;23.364;2024-01-10T07:21:56;96168.41;;;-0.87;50.31
20612;BME280;10465;42.686;23.364;2024-01-10T07:24:21;96163.81;;;-0.72;49.41
20612;BME280;10465;42.686;23.364;2024-01-10T07:26:47;96118.63;;;-0.91;49.48
20612;BME280;10465;42.686;23.364;2024-01-10T07:29:13;96141.19;;;-0.71;49.77
20612;BME280;10465;42.686;23.364;2024-01-10T07:31:38;96152.38;;;-0.44;49.33
20612;BME280;10465;42.686;23.364;2024-01-10T07:34:04;96145.31;;;-0.31;48.65
20612;BME280;10465;42.686;23.364;2024-01-10T07:36:33;96181.22;;;0.12;47.65
20612;BME280;10465;42.686;23.364;2024-01-10T07:38:59;96172.41;;;0.13;47.55
20612;BME280;10465;42.686;23.364;2024-01-10T07:41:25;96193.31;;;0.38;46.27
20612;BME280;10465;42.686;23.364;2024-01-10T07:43:50;96191.63;;;0.57;44.96
20612;BME280;10465;42.686;23.364;2024-01-10T07:46:16;96190.75;;;0.70;46.26
20612;BME280;10465;42.686;23.364;2024-01-10T07:48:41;96181.81;;;0.84;48.29
20612;BME280;10465;42.686;23.364;2024-01-10T07:51:06;96186.63;;;0.87;45.18
20612;BME280;10465;42.686;23.364;2024-01-10T07:53:32;96177.06;;;0.81;44.90
20612;BME280;10465;42.686;23.364;2024-01-10T07:55:58;96190.00;;;0.94;45.05
20612;BME280;10465;42.686;23.364;2024-01-10T07:58:24;96179.34;;;0.96;46.56
20612;BME280;10465;42.686;23.364;2024-01-10T08:00:49;96169.28;;;0.99;44.92
20612;BME280;10465;42.686;23.364;2024-01-10T08:03:15;96189.84;;;1.14;45.00
20612;BME280;10465;42.686;23.364;2024-01-10T08:05:40;96185.00;;;1.18;45.00
20612;BME280;10465;42.686;23.364;2024-01-10T08:08:05;96190.53;;;1.03;43.71
20612;BME280;10465;42.686;23.364;2024-01-10T08:10:31;96189.19;;;0.94;43.91
20612;BME280;10465;42.686;23.364;2024-01-10T08:12:57;96192.69;;;0.81;43.69
20612;BME280;10465;42.686;23.364;2024-01-10T08:15:23;96193.72;;;0.73;43.86
20612;BME280;10465;42.686;23.364;2024-01-10T08:17:48;96207.88;;;0.84;42.66
20612;BME280;10465;42.686;23.364;2024-01-10T08:20:14;96198.69;;;0.82;41.95
20612;BME280;10465;42.686;23.364;2024-01-10T08:22:45;96193.13;;;0.71;41.82
20612;BME280;10465;42.686;23.364;2024-01-10T08:25:10;96152.78;;;0.49;41.23
20612;BME280;10465;42.686;23.364;2024-01-10T08:27:37;96200.25;;;0.89;40.92
20612;BME280;10465;42.686;23.364;2024-01-10T08:30:04;96198.63;;;0.88;41.49
20612;BME280;10465;42.686;23.364;2024-01-10T08:32:31;96206.00;;;0.98;40.68
20612;BME280;10465;42.686;23.364;2024-01-10T08:34:57;96172.81;;;0.80;40.08
20612;BME280;10465;42.686;23.364;2024-01-10T08:37:22;96171.56;;;0.89;40.14
20612;BME280;10465;42.686;23.364;2024-01-10T08:39:48;96206.84;;;1.17;39.40
20612;BME280;10465;42.686;23.364;2024-01-10T08:42:13;96189.19;;;1.19;40.09
20612;BME280;10465;42.686;23.364;2024-01-10T08:44:38;96168.59;;;1.11;40.82
20612;BME280;10465;42.686;23.364;2024-01-10T08:47:04;96144.47;;;1.15;39.82
20612;BME280;10465;42.686;23.364;2024-01-10T08:49:29;96209.94;;;1.57;39.14
20612;BME280;10465;42.686;23.364;2024-01-10T08:51:55;96195.00;;;1.46;39.26
20612;BME280;10465;42.686;23.364;2024-01-10T08:54:20;96201.06;;;1.40;39.52
20612;BME280;10465;42.686;23.364;2024-01-10T08:56:47;96200.41;;;1.44;40.55
20612;BME280;10465;42.686;23.364;2024-01-10T08:59:13;96193.00;;;1.41;41.33
20612;BME280;10465;42.686;23.364;2024-01-10T09:01:38;96195.91;;;1.58;41.35
20612;BME280;10465;42.686;23.364;2024-01-10T09:04:04;96190.22;;;1.61;40.72
20612;BME280;10465;42.686;23.364;2024-01-10T09:06:31;96148.53;;;1.55;41.01
20612;BME280;10465;42.686;23.364;2024-01-10T09:08:57;96181.19;;;2.01;41.16
20612;BME280;10465;42.686;23.364;2024-01-10T09:11:22;96197.78;;;2.25;40.33
20612;BME280;10465;42.686;23.364;2024-01-10T09:13:47;96194.34;;;2.42;41.57
20612;BME280;10465;42.686;23.364;2024-01-10T09:16:14;96194.53;;;2.59;40.93
20612;BME280;10465;42.686;23.364;2024-01-10T09:18:40;96206.41;;;2.73;40.18
20612;BME280;10465;42.686;23.364;2024-01-10T09:21:06;96166.38;;;2.61;39.43
20612;BME280;10465;42.686;23.364;2024-01-10T09:23:31;96128.63;;;2.57;38.89
20612;BME280;10465;42.686;23.364;2024-01-10T09:25:56;96178.44;;;3.04;39.45
20612;BME280;10465;42.686;23.364;2024-01-10T09:28:22;96190.03;;;3.32;39.65
20612;BME280;10465;42.686;23.364;2024-01-10T09:30:48;96193.38;;;3.62;39.54
20612;BME280;10465;42.686;23.364;2024-01-10T09:33:14;96177.66;;;3.86;38.67
20612;BME280;10465;42.686;23.364;2024-01-10T09:35:39;96169.28;;;4.01;39.13
20612;BME280;10465;42.686;23.364;2024-01-10T09:38:05;96190.94;;;4.08;38.89
20612;BME280;10465;42.686;23.364;2024-01-10T09:40:31;96129.03;;;3.66;38.55
20612;BME280;10465;42.686;23.364;2024-01-10T09:42:57;96164.56;;;3.86;39.11
20612;BME280;10465;42.686;23.364;2024-01-10T09:45:23;96159.75;;;3.94;38.70
20612;BME280;10465;42.686;23.364;2024-01-10T09:47:54;96174.50;;;4.12;38.22
20612;BME280;10465;42.686;23.364;2024-01-10T09:50:21;96156.97;;;4.13;39.12
20612;BME280;10465;42.686;23.364;2024-01-10T09:53:05;96173.81;;;4.57;39.07
20612;BME280;10465;42.686;23.364;2024-01-10T09:55:34;96146.00;;;4.56;37.52
20612;BME280;10465;42.686;23.364;2024-01-10T09:58:07;96142.00;;;4.54;37.26
20612;BME280;10465;42.686;23.364;2024-01-10T10:00:34;96142.53;;;4.67;37.92
20612;BME280;10465;42.686;23.364;2024-01-10T10:03:04;96159.75;;;5.09;37.09
20612;BME280;10465;42.686;23.364;2024-01-10T10:05:32;96167.59;;;4.92;36.10
20612;BME280;10465;42.686;23.364;2024-01-10T10:07:59;96163.38;;;4.74;36.83
20612;BME280;10465;42.686;23.364;2024-01-10T10:10:25;96122.78;;;4.48;37.47
20612;BME280;10465;42.686;23.364;2024-01-10T10:12:52;96144.56;;;4.65;36.88
20612;BME280;10465;42.686;23.364;2024-01-10T10:15:24;96150.78;;;4.59;37.46
20612;BME280;10465;42.686;23.364;2024-01-10T10:17:53;96146.56;;;4.58;39.02
20612;BME280;10465;42.686;23.364;2024-01-10T10:20:28;96116.81;;;4.53;38.14
20612;BME280;10465;42.686;23.364;2024-01-10T10:25:35;96124.31;;;4.78;37.93
20612;BME280;10465;42.686;23.364;2024-01-10T10:28:02;96102.31;;;4.62;38.20
20612;BME280;10465;42.686;23.364;2024-01-10T10:30:28;96125.59;;;4.75;37.18
20612;BME280;10465;42.686;23.364;2024-01-10T10:32:55;96120.38;;;4.75;36.96
20612;BME280;10465;42.686;23.364;2024-01-10T10:35:21;96118.94;;;4.84;37.57
20612;BME280;10465;42.686;23.364;2024-01-10T10:37:48;96090.06;;;4.67;37.84
20612;BME280;10465;42.686;23.364;2024-01-10T10:40:14;96115.28;;;4.85;38.03
20612;BME280;10465;42.686;23.364;2024-01-10T10:42:44;96090.41;;;4.88;37.16
20612;BME280;10465;42.686;23.364;2024-01-10T10:45:14;96080.88;;;4.99;37.87
20612;BME280;10465;42.686;23.364;2024-01-10T10:47:43;96081.47;;;5.23;37.99
20612;BME280;10465;42.686;23.364;2024-01-10T10:50:19;96077.19;;;5.16;37.95
20612;BME280;10465;42.686;23.364;2024-01-10T10:52:46;96085.06;;;5.16;37.03
20612;BME280;10465;42.686;23.364;2024-01-10T10:55:17;96062.00;;;5.02;37.82
20612;BME280;10465;42.686;23.364;2024-01-10T10:57:47;96079.56;;;5.18;36.97
20612;BME280;10465;42.686;23.364;2024-01-10T11:00:19;96077.03;;;5.23;36.97
20612;BME280;10465;42.686;23.364;2024-01-10T11:02:45;96067.75;;;5.37;37.23
20612;BME280;10465;42.686;23.364;2024-01-10T11:05:11;96078.16;;;5.49;36.67
20612;BME280;10465;42.686;23.364;2024-01-10T11:07:41;96064.09;;;5.38;37.27
20612;BME280;10465;42.686;23.364;2024-01-10T11:10:12;96048.75;;;5.30;37.00
20612;BME280;10465;42.686;23.364;2024-01-10T11:15:20;96066.97;;;5.59;36.73
20612;BME280;10465;42.686;23.364;2024-01-10T11:18:05;96066.22;;;5.80;37.68
20612;BME280;10465;42.686;23.364;2024-01-10T11:20:47;96057.28;;;5.81;36.59
20612;BME280;10465;42.686;23.364;2024-01-10T11:25:54;96051.84;;;6.10;35.64
20612;BME280;10465;42.686;23.364;2024-01-10T11:28:20;96054.38;;;6.27;36.84
20612;BME280;10465;42.686;23.364;2024-01-10T11:30:50;96034.13;;;6.27;36.43
20612;BME280;10465;42.686;23.364;2024-01-10T11:33:23;96051.22;;;6.25;35.64
20612;BME280;10465;42.686;23.364;2024-01-10T11:36:19;96041.72;;;6.24;35.75
20612;BME280;10465;42.686;23.364;2024-01-10T11:41:29;96037.34;;;5.85;36.51
20612;BME280;10465;42.686;23.364;2024-01-10T11:46:53;96018.47;;;5.66;37.11
20612;BME280;10465;42.686;23.364;2024-01-10T11:49:20;96016.78;;;5.77;37.32
20612;BME280;10465;42.686;23.364;2024-01-10T11:51:48;96017.75;;;5.71;37.63
20612;BME280;10465;42.686;23.364;2024-01-10T11:59:34;95997.34;;;5.56;38.56
20612;BME280;10465;42.686;23.364;2024-01-10T12:02:00;95997.69;;;5.87;37.75
20612;BME280;10465;42.686;23.364;2024-01-10T12:04:25;95998.63;;;5.98;37.68
20612;BME280;10465;42.686;23.364;2024-01-10T12:06:55;96007.25;;;5.93;37.90
20612;BME280;10465;42.686;23.364;2024-01-10T12:09:21;96003.03;;;5.92;37.75
20612;BME280;10465;42.686;23.364;2024-01-10T12:11:46;95988.66;;;5.78;38.81
20612;BME280;10465;42.686;23.364;2024-01-10T12:14:14;95964.88;;;5.89;38.89
20612;BME280;10465;42.686;23.364;2024-01-10T12:16:40;95938.53;;;5.84;38.31
20612;BME280;10465;42.686;23.364;2024-01-10T12:19:05;95983.03;;;6.18;38.40
20612;BME280;10465;42.686;23.364;2024-01-10T12:21:31;95987.31;;;5.97;37.37
20612;BME280;10465;42.686;23.364;2024-01-10T12:23:57;95980.03;;;5.82;38.57
20612;BME280;10465;42.686;23.364;2024-01-10T12:26:22;95973.91;;;5.72;39.72
20612;BME280;10465;42.686;23.364;2024-01-10T12:28:55;95978.31;;;5.71;39.68
20612;BME280;10465;42.686;23.364;2024-01-10T12:31:21;95991.47;;;5.71;38.76
20612;BME280;10465;42.686;23.364;2024-01-10T12:33:50;95980.97;;;5.71;39.89
20612;BME280;10465;42.686;23.364;2024-01-10T12:36:17;95984.50;;;5.82;39.49
20612;BME280;10465;42.686;23.364;2024-01-10T12:38:43;95996.78;;;5.76;39.50
20612;BME280;10465;42.686;23.364;2024-01-10T12:41:09;95985.75;;;5.52;39.39
20612;BME280;10465;42.686;23.364;2024-01-10T12:43:35;95994.78;;;5.39;40.09
20612;BME280;10465;42.686;23.364;2024-01-10T12:46:11;95997.69;;;5.21;40.16
20612;BME280;10465;42.686;23.364;2024-01-10T12:48:38;95980.63;;;5.02;41.56
20612;BME280;10465;42.686;23.364;2024-01-10T12:51:07;95992.13;;;4.79;42.53
20612;BME280;10465;42.686;23.364;2024-01-10T12:53:51;95992.75;;;4.69;42.33
20612;BME280;10465;42.686;23.364;2024-01-10T12:56:18;95957.19;;;4.56;43.33
20612;BME280;10465;42.686;23.364;2024-01-10T12:58:44;95973.69;;;4.74;43.19
20612;BME280;10465;42.686;23.364;2024-01-10T13:01:10;95985.13;;;4.84;42.81
20612;BME280;10465;42.686;23.364;2024-01-10T13:03:37;95990.47;;;4.72;42.69
20612;BME280;10465;42.686;23.364;2024-01-10T13:06:03;95957.34;;;4.33;43.50
20612;BME280;10465;42.686;23.364;2024-01-10T13:08:28;95987.69;;;4.45;43.88
20612;BME280;10465;42.686;23.364;2024-01-10T13:10:53;95989.75;;;4.43;43.84